sensor_id;sensor_type;location;lat;lon;timestamp;P1;durP1;ratioP1;P2;durP2;ratioP2
52854;SDS011;38719;51.418;7.286;2023-04-03T00:00:58;14.20;;;9.90;;
52854;SDS011;38719;51.418;7.286;2023-04-03T00:03:25;19.75;;;11.25;;
52854;SDS011;38719;51.418;7.286;2023-04-03T00:05:53;23.33;;;10.55;;
52854;SDS011;38719;51.418;7.286;2023-04-03T00:08:20;20.98;;;10.45;;
52854;SDS011;38719;51.418;7.286;2023-04-03T00:10:48;27.27;;;11.73;;
52854;SDS011;38719;51.418;7.286;2023-04-03T00:13:16;23.05;;;10.65;;
52854;SDS011;38719;51.418;7.286;2023-04-03T00:15:45;18.52;;;10.20;;
52854;SDS011;38719;51.418;7.286;2023-04-03T00:18:12;16.55;;;10.57;;
52854;SDS011;38719;51.418;7.286;2023-04-03T00:20:40;18.63;;;10.40;;
52854;SDS011;38719;51.418;7.286;2023-04-03T00:23:07;20.63;;;10.77;;
52854;SDS011;38719;51.418;7.286;2023-04-03T00:25:35;17.02;;;10.13;;
52854;SDS011;38719;51.418;7.286;2023-04-03T00:28:03;19.05;;;10.52;;
52854;SDS011;38719;51.418;7.286;2023-04-03T00:30:31;16.15;;;10.20;;
52854;SDS011;38719;51.418;7.286;2023-04-03T00:33:01;17.83;;;10.32;;
52854;SDS011;38719;51.418;7.286;2023-04-03T00:35:29;21.25;;;10.85;;
52854;SDS011;38719;51.418;7.286;2023-04-03T00:37:57;21.58;;;11.02;;
52854;SDS011;38719;51.418;7.286;2023-04-03T00:40:25;16.88;;;10.38;;
52854;SDS011;38719;51.418;7.286;2023-04-03T00:42:55;18.70;;;11.23;;
52854;SDS011;38719;51.418;7.286;2023-04-03T00:45:34;25.52;;;11.70;;
52854;SDS011;38719;51.418;7.286;2023-04-03T00:48:05;18.17;;;10.68;;
52854;SDS011;38719;51.418;7.286;2023-04-03T00:50:36;17.20;;;10.38;;
52854;SDS011;38719;51.418;7.286;2023-04-03T00:53:06;18.88;;;10.27;;
52854;SDS011;38719;51.418;7.286;2023-04-03T00:55:37;18.80;;;10.82;;
52854;SDS011;38719;51.418;7.286;2023-04-03T00:58:06;20.20;;;11.18;;
52854;SDS011;38719;51.418;7.286;2023-04-03T01:00:34;18.80;;;10.52;;
52854;SDS011;38719;51.418;7.286;2023-04-03T01:03:05;20.70;;;11.88;;
52854;SDS011;38719;51.418;7.286;2023-04-03T01:05:33;17.45;;;11.35;;
52854;SDS011;38719;51.418;7.286;2023-04-03T01:08:01;20.80;;;11.32;;
52854;SDS011;38719;51.418;7.286;2023-04-03T01:10:28;19.67;;;10.52;;
52854;SDS011;38719;51.418;7.286;2023-04-03T01:12:56;18.33;;;10.75;;
52854;SDS011;38719;51.418;7.286;2023-04-03T01:15:25;18.17;;;10.23;;
52854;SDS011;38719;51.418;7.286;2023-04-03T01:17:57;14.60;;;10.20;;
52854;SDS011;38719;51.418;7.286;2023-04-03T01:20:40;16.13;;;9.38;;
52854;SDS011;38719;51.418;7.286;2023-04-03T01:23:43;15.60;;;9.18;;
52854;SDS011;38719;51.418;7.286;2023-04-03T01:26:17;15.32;;;8.93;;
52854;SDS011;38719;51.418;7.286;2023-04-03T01:28:46;14.10;;;8.77;;
52854;SDS011;38719;51.418;7.286;2023-04-03T01:31:15;14.25;;;9.23;;
52854;SDS011;38719;51.418;7.286;2023-04-03T01:33:50;13.45;;;8.88;;
52854;SDS011;38719;51.418;7.286;2023-04-03T01:36:19;17.98;;;8.45;;
52854;SDS011;38719;51.418;7.286;2023-04-03T01:38:49;10.85;;;7.72;;
52854;SDS011;38719;51.418;7.286;2023-04-03T01:41:17;11.48;;;7.75;;
52854;SDS011;38719;51.418;7.286;2023-04-03T01:43:46;13.05;;;7.53;;
52854;SDS011;38719;51.418;7.286;2023-04-03T01:46:14;12.73;;;7.93;;
52854;SDS011;38719;51.418;7.286;2023-04-03T01:48:42;9.45;;;6.88;;
52854;SDS011;38719;51.418;7.286;2023-04-03T01:51:11;11.45;;;7.05;;
52854;SDS011;38719;51.418;7.286;2023-04-03T01:53:38;9.05;;;7.00;;
52854;SDS011;38719;51.418;7.286;2023-04-03T01:56:06;9.18;;;6.80;;
52854;SDS011;38719;51.418;7.286;2023-04-03T01:58:34;10.38;;;6.40;;
52854;SDS011;38719;51.418;7.286;2023-04-03T02:01:02;11.55;;;6.88;;
52854;SDS011;38719;51.418;7.286;2023-04-03T02:03:29;9.15;;;6.30;;
52854;SDS011;38719;51.418;7.286;2023-04-03T02:05:57;13.63;;;6.18;;
52854;SDS011;38719;51.418;7.286;2023-04-03T02:08:26;7.35;;;5.95;;
52854;SDS011;38719;51.418;7.286;2023-04-03T02:10:54;8.75;;;5.78;;
52854;SDS011;38719;51.418;7.286;2023-04-03T02:13:21;8.73;;;5.60;;
52854;SDS011;38719;51.418;7.286;2023-04-03T02:15:49;6.82;;;5.28;;
52854;SDS011;38719;51.418;7.286;2023-04-03T02:18:16;7.55;;;5.60;;
52854;SDS011;38719;51.418;7.286;2023-04-03T02:20:44;9.48;;;5.28;;
52854;SDS011;38719;51.418;7.286;2023-04-03T02:23:13;7.20;;;5.38;;
52854;SDS011;38719;51.418;7.286;2023-04-03T02:25:42;10.10;;;5.45;;
52854;SDS011;38719;51.418;7.286;2023-04-03T02:28:10;7.28;;;5.05;;
52854;SDS011;38719;51.418;7.286;2023-04-03T02:30:37;8.55;;;5.03;;
52854;SDS011;38719;51.418;7.286;2023-04-03T02:33:05;8.98;;;5.40;;
52854;SDS011;38719;51.418;7.286;2023-04-03T02:35:33;17.40;;;6.47;;
52854;SDS011;38719;51.418;7.286;2023-04-03T02:38:00;9.65;;;6.90;;
52854;SDS011;38719;51.418;7.286;2023-04-03T02:40:28;17.27;;;7.85;;
52854;SDS011;38719;51.418;7.286;2023-04-03T02:42:56;20.63;;;7.90;;
52854;SDS011;38719;51.418;7.286;2023-04-03T02:45:24;19.77;;;8.13;;
52854;SDS011;38719;51.418;7.286;2023-04-03T02:47:52;16.38;;;7.07;;
52854;SDS011;38719;51.418;7.286;2023-04-03T02:50:19;11.57;;;5.45;;
52854;SDS011;38719;51.418;7.286;2023-04-03T02:52:49;7.10;;;4.85;;
52854;SDS011;38719;51.418;7.286;2023-04-03T02:55:17;6.47;;;4.10;;
52854;SDS011;38719;51.418;7.286;2023-04-03T02:57:44;8.82;;;3.60;;
52854;SDS011;38719;51.418;7.286;2023-04-03T03:00:14;10.52;;;4.00;;
52854;SDS011;38719;51.418;7.286;2023-04-03T03:02:41;7.13;;;4.20;;
52854;SDS011;38719;51.418;7.286;2023-04-03T03:05:09;8.52;;;4.30;;
52854;SDS011;38719;51.418;7.286;2023-04-03T03:07:36;6.47;;;3.65;;
52854;SDS011;38719;51.418;7.286;2023-04-03T03:10:04;7.57;;;3.80;;
52854;SDS011;38719;51.418;7.286;2023-04-03T03:12:32;8.95;;;4.10;;
52854;SDS011;38719;51.418;7.286;2023-04-03T03:14:59;7.18;;;3.67;;
52854;SDS011;38719;51.418;7.286;2023-04-03T03:17:28;8.07;;;3.60;;
52854;SDS011;38719;51.418;7.286;2023-04-03T03:19:56;8.82;;;3.72;;
52854;SDS011;38719;51.418;7.286;2023-04-03T03:22:23;5.57;;;3.72;;
52854;SDS011;38719;51.418;7.286;2023-04-03T03:24:51;7.32;;;3.70;;
52854;SDS011;38719;51.418;7.286;2023-04-03T03:27:19;5.68;;;3.22;;
52854;SDS011;38719;51.418;7.286;2023-04-03T03:29:46;6.30;;;3.30;;
52854;SDS011;38719;51.418;7.286;2023-04-03T03:32:14;7.35;;;3.13;;
52854;SDS011;38719;51.418;7.286;2023-04-03T03:34:43;4.60;;;3.47;;
52854;SDS011;38719;51.418;7.286;2023-04-03T03:37:10;6.28;;;3.95;;
52854;SDS011;38719;51.418;7.286;2023-04-03T03:39:38;10.35;;;4.22;;
52854;SDS011;38719;51.418;7.286;2023-04-03T03:42:06;6.25;;;3.70;;
52854;SDS011;38719;51.418;7.286;2023-04-03T03:44:33;6.82;;;3.50;;
52854;SDS011;38719;51.418;7.286;2023-04-03T03:47:01;8.98;;;3.83;;
52854;SDS011;38719;51.418;7.286;2023-04-03T03:49:29;7.68;;;3.67;;
52854;SDS011;38719;51.418;7.286;2023-04-03T03:51:57;7.43;;;3.50;;
52854;SDS011;38719;51.418;7.286;2023-04-03T03:54:25;3.80;;;3.35;;
52854;SDS011;38719;51.418;7.286;2023-04-03T03:56:52;4.43;;;3.33;;
52854;SDS011;38719;51.418;7.286;2023-04-03T03:59:20;3.28;;;2.75;;
52854;SDS011;38719;51.418;7.286;2023-04-03T04:01:48;4.55;;;3.00;;
52854;SDS011;38719;51.418;7.286;2023-04-03T04:04:15;9.77;;;3.17;;
52854;SDS011;38719;51.418;7.286;2023-04-03T04:06:43;5.43;;;3.40;;
52854;SDS011;38719;51.418;7.286;2023-04-03T04:09:12;6.30;;;3.30;;
52854;SDS011;38719;51.418;7.286;2023-04-03T04:11:40;5.53;;;3.20;;
52854;SDS011;38719;51.418;7.286;2023-04-03T04:14:07;9.27;;;3.17;;
52854;SDS011;38719;51.418;7.286;2023-04-03T04:16:36;8.80;;;3.35;;
52854;SDS011;38719;51.418;7.286;2023-04-03T04:19:04;7.70;;;3.50;;
52854;SDS011;38719;51.418;7.286;2023-04-03T04:21:34;9.13;;;3.50;;
52854;SDS011;38719;51.418;7.286;2023-04-03T04:24:01;4.07;;;3.20;;
52854;SDS011;38719;51.418;7.286;2023-04-03T04:26:31;5.47;;;3.72;;
52854;SDS011;38719;51.418;7.286;2023-04-03T04:28:58;7.95;;;3.40;;
52854;SDS011;38719;51.418;7.286;2023-04-03T04:31:26;5.32;;;3.40;;
52854;SDS011;38719;51.418;7.286;2023-04-03T04:33:54;8.70;;;3.58;;
52854;SDS011;38719;51.418;7.286;2023-04-03T04:36:21;9.70;;;3.60;;
52854;SDS011;38719;51.418;7.286;2023-04-03T04:38:49;6.07;;;3.35;;
52854;SDS011;38719;51.418;7.286;2023-04-03T04:41:19;7.97;;;3.83;;
52854;SDS011;38719;51.418;7.286;2023-04-03T04:43:49;6.38;;;3.75;;
52854;SDS011;38719;51.418;7.286;2023-04-03T04:46:19;6.18;;;3.83;;
52854;SDS011;38719;51.418;7.286;2023-04-03T04:48:46;5.80;;;3.58;;
52854;SDS011;38719;51.418;7.286;2023-04-03T04:51:15;5.32;;;3.10;;
52854;SDS011;38719;51.418;7.286;2023-04-03T04:53:43;6.53;;;3.50;;
52854;SDS011;38719;51.418;7.286;2023-04-03T04:56:11;10.98;;;4.22;;
52854;SDS011;38719;51.418;7.286;2023-04-03T04:58:38;5.03;;;3.60;;
52854;SDS011;38719;51.418;7.286;2023-04-03T05:01:07;6.10;;;4.35;;
52854;SDS011;38719;51.418;7.286;2023-04-03T05:03:36;7.82;;;3.10;;
52854;SDS011;38719;51.418;7.286;2023-04-03T05:06:04;4.75;;;3.67;;
52854;SDS011;38719;51.418;7.286;2023-04-03T05:08:32;8.95;;;3.65;;
52854;SDS011;38719;51.418;7.286;2023-04-03T05:10:59;8.70;;;3.83;;
52854;SDS011;38719;51.418;7.286;2023-04-03T05:13:27;6.32;;;3.72;;
52854;SDS011;38719;51.418;7.286;2023-04-03T05:15:54;6.18;;;3.50;;
52854;SDS011;38719;51.418;7.286;2023-04-03T05:18:23;15.32;;;3.95;;
52854;SDS011;38719;51.418;7.286;2023-04-03T05:20:51;6.75;;;3.40;;
52854;SDS011;38719;51.418;7.286;2023-04-03T05:23:18;8.45;;;3.17;;
52854;SDS011;38719;51.418;7.286;2023-04-03T05:25:46;5.50;;;3.72;;
52854;SDS011;38719;51.418;7.286;2023-04-03T05:28:14;6.07;;;3.25;;
52854;SDS011;38719;51.418;7.286;2023-04-03T05:30:42;4.40;;;3.78;;
52854;SDS011;38719;51.418;7.286;2023-04-03T05:33:09;8.40;;;3.80;;
52854;SDS011;38719;51.418;7.286;2023-04-03T05:35:38;8.70;;;4.00;;
52854;SDS011;38719;51.418;7.286;2023-04-03T05:38:07;9.55;;;3.78;;
52854;SDS011;38719;51.418;7.286;2023-04-03T05:40:35;7.43;;;3.80;;
52854;SDS011;38719;51.418;7.286;2023-04-03T05:43:03;6.80;;;3.67;;
52854;SDS011;38719;51.418;7.286;2023-04-03T05:45:31;7.25;;;4.45;;
52854;SDS011;38719;51.418;7.286;2023-04-03T05:47:58;9.65;;;3.95;;
52854;SDS011;38719;51.418;7.286;2023-04-03T05:50:26;8.32;;;4.25;;
52854;SDS011;38719;51.418;7.286;2023-04-03T05:52:56;5.72;;;3.70;;
52854;SDS011;38719;51.418;7.286;2023-04-03T05:55:25;6.57;;;3.95;;
52854;SDS011;38719;51.418;7.286;2023-04-03T05:57:52;8.52;;;4.43;;
52854;SDS011;38719;51.418;7.286;2023-04-03T06:00:20;6.07;;;4.07;;
52854;SDS011;38719;51.418;7.286;2023-04-03T06:02:48;11.45;;;5.05;;
52854;SDS011;38719;51.418;7.286;2023-04-03T06:05:16;7.88;;;5.07;;
52854;SDS011;38719;51.418;7.286;2023-04-03T06:07:44;10.98;;;5.13;;
52854;SDS011;38719;51.418;7.286;2023-04-03T06:10:13;13.50;;;5.68;;
52854;SDS011;38719;51.418;7.286;2023-04-03T06:12:40;11.23;;;5.32;;
52854;SDS011;38719;51.418;7.286;2023-04-03T06:15:08;13.63;;;5.47;;
52854;SDS011;38719;51.418;7.286;2023-04-03T06:17:37;13.93;;;4.28;;
52854;SDS011;38719;51.418;7.286;2023-04-03T06:20:05;10.30;;;4.80;;
52854;SDS011;38719;51.418;7.286;2023-04-03T06:22:33;21.13;;;4.90;;
52854;SDS011;38719;51.418;7.286;2023-04-03T06:25:01;10.70;;;4.93;;
52854;SDS011;38719;51.418;7.286;2023-04-03T06:27:30;10.13;;;3.95;;
52854;SDS011;38719;51.418;7.286;2023-04-03T06:29:58;7.30;;;4.55;;
52854;SDS011;38719;51.418;7.286;2023-04-03T06:32:26;11.02;;;4.20;;
52854;SDS011;38719;51.418;7.286;2023-04-03T06:34:54;10.30;;;3.88;;
52854;SDS011;38719;51.418;7.286;2023-04-03T06:37:22;5.47;;;3.60;;
52854;SDS011;38719;51.418;7.286;2023-04-03T06:39:52;7.82;;;3.78;;
52854;SDS011;38719;51.418;7.286;2023-04-03T06:42:19;7.15;;;3.88;;
52854;SDS011;38719;51.418;7.286;2023-04-03T06:44:48;5.93;;;3.42;;
52854;SDS011;38719;51.418;7.286;2023-04-03T06:47:16;9.00;;;3.33;;
52854;SDS011;38719;51.418;7.286;2023-04-03T06:49:44;9.05;;;3.42;;
52854;SDS011;38719;51.418;7.286;2023-04-03T06:52:12;7.63;;;3.50;;
52854;SDS011;38719;51.418;7.286;2023-04-03T06:54:39;5.65;;;3.38;;
52854;SDS011;38719;51.418;7.286;2023-04-03T06:57:07;7.82;;;3.75;;
52854;SDS011;38719;51.418;7.286;2023-04-03T06:59:35;5.43;;;3.33;;
52854;SDS011;38719;51.418;7.286;2023-04-03T07:02:05;5.80;;;2.90;;
52854;SDS011;38719;51.418;7.286;2023-04-03T07:04:33;7.25;;;3.20;;
52854;SDS011;38719;51.418;7.286;2023-04-03T07:07:00;7.03;;;3.45;;
52854;SDS011;38719;51.418;7.286;2023-04-03T07:09:28;5.15;;;3.22;;
52854;SDS011;38719;51.418;7.286;2023-04-03T07:11:55;6.28;;;3.30;;
52854;SDS011;38719;51.418;7.286;2023-04-03T07:14:23;5.97;;;3.08;;
52854;SDS011;38719;51.418;7.286;2023-04-03T07:16:51;9.60;;;3.47;;
52854;SDS011;38719;51.418;7.286;2023-04-03T07:19:19;10.18;;;3.75;;
52854;SDS011;38719;51.418;7.286;2023-04-03T07:21:47;5.43;;;3.63;;
52854;SDS011;38719;51.418;7.286;2023-04-03T07:24:15;7.57;;;3.90;;
52854;SDS011;38719;51.418;7.286;2023-04-03T07:26:42;9.32;;;4.00;;
52854;SDS011;38719;51.418;7.286;2023-04-03T07:29:11;5.82;;;3.33;;
52854;SDS011;38719;51.418;7.286;2023-04-03T07:31:38;6.70;;;3.95;;
52854;SDS011;38719;51.418;7.286;2023-04-03T07:34:07;8.10;;;3.58;;
52854;SDS011;38719;51.418;7.286;2023-04-03T07:36:36;5.32;;;3.33;;
52854;SDS011;38719;51.418;7.286;2023-04-03T07:39:04;7.60;;;4.65;;
52854;SDS011;38719;51.418;7.286;2023-04-03T07:41:33;7.22;;;3.63;;
52854;SDS011;38719;51.418;7.286;2023-04-03T07:44:00;5.68;;;3.10;;
52854;SDS011;38719;51.418;7.286;2023-04-03T07:46:28;11.25;;;3.38;;
52854;SDS011;38719;51.418;7.286;2023-04-03T07:48:56;8.68;;;3.42;;
52854;SDS011;38719;51.418;7.286;2023-04-03T07:51:23;7.40;;;3.47;;
52854;SDS011;38719;51.418;7.286;2023-04-03T07:53:53;4.32;;;3.00;;
52854;SDS011;38719;51.418;7.286;2023-04-03T07:56:21;4.03;;;3.20;;
52854;SDS011;38719;51.418;7.286;2023-04-03T07:58:48;11.93;;;3.78;;
52854;SDS011;38719;51.418;7.286;2023-04-03T08:01:16;6.57;;;3.53;;
52854;SDS011;38719;51.418;7.286;2023-04-03T08:03:44;9.98;;;3.70;;
52854;SDS011;38719;51.418;7.286;2023-04-03T08:06:11;6.07;;;3.05;;
52854;SDS011;38719;51.418;7.286;2023-04-03T08:08:42;10.60;;;3.85;;
52854;SDS011;38719;51.418;7.286;2023-04-03T08:11:11;10.23;;;3.35;;
52854;SDS011;38719;51.418;7.286;2023-04-03T08:13:39;9.98;;;3.40;;
52854;SDS011;38719;51.418;7.286;2023-04-03T08:16:08;8.60;;;2.85;;
52854;SDS011;38719;51.418;7.286;2023-04-03T08:18:37;7.80;;;3.40;;
52854;SDS011;38719;51.418;7.286;2023-04-03T08:21:05;4.68;;;2.90;;
52854;SDS011;38719;51.418;7.286;2023-04-03T08:23:34;4.38;;;3.08;;
52854;SDS011;38719;51.418;7.286;2023-04-03T08:26:05;7.40;;;3.55;;
52854;SDS011;38719;51.418;7.286;2023-04-03T08:28:35;10.80;;;3.63;;
52854;SDS011;38719;51.418;7.286;2023-04-03T08:31:03;11.13;;;3.40;;
52854;SDS011;38719;51.418;7.286;2023-04-03T08:33:33;4.82;;;2.60;;
52854;SDS011;38719;51.418;7.286;2023-04-03T08:36:02;8.23;;;2.83;;
52854;SDS011;38719;51.418;7.286;2023-04-03T08:38:30;6.75;;;2.80;;
52854;SDS011;38719;51.418;7.286;2023-04-03T08:41:02;7.05;;;2.65;;
52854;SDS011;38719;51.418;7.286;2023-04-03T08:43:36;4.10;;;2.80;;
52854;SDS011;38719;51.418;7.286;2023-04-03T08:46:14;7.65;;;2.65;;
52854;SDS011;38719;51.418;7.286;2023-04-03T08:48:43;4.78;;;2.33;;
52854;SDS011;38719;51.418;7.286;2023-04-03T08:51:12;5.50;;;2.72;;
52854;SDS011;38719;51.418;7.286;2023-04-03T08:53:44;5.85;;;3.08;;
52854;SDS011;38719;51.418;7.286;2023-04-03T08:56:21;5.97;;;2.92;;
52854;SDS011;38719;51.418;7.286;2023-04-03T08:58:51;2.90;;;2.60;;
52854;SDS011;38719;51.418;7.286;2023-04-03T09:01:23;5.78;;;2.70;;
52854;SDS011;38719;51.418;7.286;2023-04-03T09:03:53;4.63;;;2.92;;
52854;SDS011;38719;51.418;7.286;2023-04-03T09:06:22;6.70;;;2.78;;
52854;SDS011;38719;51.418;7.286;2023-04-03T09:08:55;9.80;;;2.90;;
52854;SDS011;38719;51.418;7.286;2023-04-03T09:11:36;6.85;;;2.78;;
52854;SDS011;38719;51.418;7.286;2023-04-03T09:14:15;3.85;;;2.65;;
52854;SDS011;38719;51.418;7.286;2023-04-03T09:16:51;6.38;;;2.90;;
52854;SDS011;38719;51.418;7.286;2023-04-03T09:19:34;7.75;;;2.58;;
52854;SDS011;38719;51.418;7.286;2023-04-03T09:22:11;8.10;;;2.95;;
52854;SDS011;38719;51.418;7.286;2023-04-03T09:24:44;4.82;;;2.88;;
52854;SDS011;38719;51.418;7.286;2023-04-03T09:27:14;6.85;;;2.80;;
52854;SDS011;38719;51.418;7.286;2023-04-03T09:29:43;9.20;;;3.20;;
52854;SDS011;38719;51.418;7.286;2023-04-03T09:32:18;4.57;;;2.83;;
52854;SDS011;38719;51.418;7.286;2023-04-03T09:34:49;6.40;;;2.58;;
52854;SDS011;38719;51.418;7.286;2023-04-03T09:37:33;3.63;;;2.72;;
52854;SDS011;38719;51.418;7.286;2023-04-03T09:40:05;3.33;;;2.38;;
52854;SDS011;38719;51.418;7.286;2023-04-03T09:42:55;3.38;;;2.45;;
52854;SDS011;38719;51.418;7.286;2023-04-03T09:45:29;3.65;;;2.47;;
52854;SDS011;38719;51.418;7.286;2023-04-03T09:48:06;2.88;;;2.50;;
52854;SDS011;38719;51.418;7.286;2023-04-03T09:50:52;2.47;;;2.13;;
52854;SDS011;38719;51.418;7.286;2023-04-03T09:53:32;5.05;;;2.55;;
52854;SDS011;38719;51.418;7.286;2023-04-03T09:56:03;6.30;;;2.38;;
52854;SDS011;38719;51.418;7.286;2023-04-03T09:58:46;3.55;;;2.35;;
52854;SDS011;38719;51.418;7.286;2023-04-03T10:01:26;3.42;;;2.28;;
52854;SDS011;38719;51.418;7.286;2023-04-03T10:04:05;2.63;;;2.30;;
52854;SDS011;38719;51.418;7.286;2023-04-03T10:06:35;8.32;;;3.00;;
52854;SDS011;38719;51.418;7.286;2023-04-03T10:09:12;4.30;;;2.40;;
52854;SDS011;38719;51.418;7.286;2023-04-03T10:11:57;9.35;;;2.70;;
52854;SDS011;38719;51.418;7.286;2023-04-03T10:14:31;5.05;;;2.35;;
52854;SDS011;38719;51.418;7.286;2023-04-03T10:17:03;3.53;;;2.45;;
52854;SDS011;38719;51.418;7.286;2023-04-03T10:19:42;3.47;;;2.67;;
52854;SDS011;38719;51.418;7.286;2023-04-03T10:22:16;3.15;;;2.20;;
52854;SDS011;38719;51.418;7.286;2023-04-03T10:24:52;2.95;;;2.40;;
52854;SDS011;38719;51.418;7.286;2023-04-03T10:27:29;3.65;;;2.30;;
52854;SDS011;38719;51.418;7.286;2023-04-03T10:30:07;3.97;;;2.63;;
52854;SDS011;38719;51.418;7.286;2023-04-03T10:32:52;6.85;;;2.80;;
52854;SDS011;38719;51.418;7.286;2023-04-03T10:35:32;4.55;;;2.35;;
52854;SDS011;38719;51.418;7.286;2023-04-03T10:38:08;5.43;;;2.42;;
52854;SDS011;38719;51.418;7.286;2023-04-03T10:40:45;6.68;;;2.30;;
52854;SDS011;38719;51.418;7.286;2023-04-03T10:43:21;9.30;;;2.67;;
52854;SDS011;38719;51.418;7.286;2023-04-03T10:46:00;5.30;;;2.22;;
52854;SDS011;38719;51.418;7.286;2023-04-03T10:48:35;3.85;;;2.40;;
52854;SDS011;38719;51.418;7.286;2023-04-03T10:51:14;4.93;;;2.28;;
52854;SDS011;38719;51.418;7.286;2023-04-03T10:53:52;2.42;;;1.90;;
52854;SDS011;38719;51.418;7.286;2023-04-03T10:56:26;4.95;;;2.10;;
52854;SDS011;38719;51.418;7.286;2023-04-03T10:59:00;13.43;;;2.47;;
52854;SDS011;38719;51.418;7.286;2023-04-03T11:01:35;3.85;;;1.90;;
52854;SDS011;38719;51.418;7.286;2023-04-03T11:04:07;4.22;;;2.58;;
52854;SDS011;38719;51.418;7.286;2023-04-03T11:06:39;4.80;;;2.03;;
52854;SDS011;38719;51.418;7.286;2023-04-03T11:09:12;3.25;;;2.13;;
52854;SDS011;38719;51.418;7.286;2023-04-03T11:11:47;3.63;;;2.28;;
52854;SDS011;38719;51.418;7.286;2023-04-03T11:14:17;12.13;;;2.60;;
52854;SDS011;38719;51.418;7.286;2023-04-03T11:17:04;3.08;;;2.60;;
52854;SDS011;38719;51.418;7.286;2023-04-03T11:19:41;2.47;;;1.85;;
52854;SDS011;38719;51.418;7.286;2023-04-03T11:22:15;2.47;;;1.80;;
52854;SDS011;38719;51.418;7.286;2023-04-03T11:24:52;2.90;;;1.90;;
52854;SDS011;38719;51.418;7.286;2023-04-03T11:27:25;4.20;;;2.85;;
52854;SDS011;38719;51.418;7.286;2023-04-03T11:29:58;4.50;;;2.53;;
52854;SDS011;38719;51.418;7.286;2023-04-03T11:32:34;5.45;;;2.70;;
52854;SDS011;38719;51.418;7.286;2023-04-03T11:35:18;4.20;;;2.30;;
52854;SDS011;38719;51.418;7.286;2023-04-03T11:37:47;3.63;;;2.00;;
52854;SDS011;38719;51.418;7.286;2023-04-03T11:40:21;3.00;;;2.20;;
52854;SDS011;38719;51.418;7.286;2023-04-03T11:42:53;2.97;;;1.98;;
52854;SDS011;38719;51.418;7.286;2023-04-03T11:45:27;5.38;;;2.10;;
52854;SDS011;38719;51.418;7.286;2023-04-03T11:48:01;2.20;;;1.98;;
52854;SDS011;38719;51.418;7.286;2023-04-03T11:50:47;1.92;;;1.80;;
52854;SDS011;38719;51.418;7.286;2023-04-03T11:53:27;11.18;;;2.28;;
52854;SDS011;38719;51.418;7.286;2023-04-03T11:55:57;3.85;;;1.80;;
52854;SDS011;38719;51.418;7.286;2023-04-03T11:58:27;2.05;;;1.80;;
52854;SDS011;38719;51.418;7.286;2023-04-03T12:01:03;2.03;;;1.85;;
52854;SDS011;38719;51.418;7.286;2023-04-03T12:06:43;5.13;;;2.17;;
52854;SDS011;38719;51.418;7.286;2023-04-03T12:09:22;3.70;;;2.50;;
52854;SDS011;38719;51.418;7.286;2023-04-03T12:11:51;3.40;;;1.88;;
52854;SDS011;38719;51.418;7.286;2023-04-03T12:14:21;3.60;;;2.53;;
52854;SDS011;38719;51.418;7.286;2023-04-03T12:16:50;4.28;;;2.10;;
52854;SDS011;38719;51.418;7.286;2023-04-03T12:19:27;5.80;;;2.00;;
52854;SDS011;38719;51.418;7.286;2023-04-03T12:22:16;1.93;;;1.83;;
52854;SDS011;38719;51.418;7.286;2023-04-03T12:24:47;3.53;;;1.90;;
52854;SDS011;38719;51.418;7.286;2023-04-03T12:27:20;2.50;;;2.15;;
52854;SDS011;38719;51.418;7.286;2023-04-03T12:29:51;4.28;;;2.42;;
52854;SDS011;38719;51.418;7.286;2023-04-03T12:32:25;2.85;;;2.25;;
52854;SDS011;38719;51.418;7.286;2023-04-03T12:35:09;3.13;;;2.13;;
52854;SDS011;38719;51.418;7.286;2023-04-03T12:37:48;4.43;;;2.00;;
52854;SDS011;38719;51.418;7.286;2023-04-03T12:40:26;3.78;;;2.25;;
52854;SDS011;38719;51.418;7.286;2023-04-03T12:43:02;3.78;;;2.15;;
52854;SDS011;38719;51.418;7.286;2023-04-03T12:45:44;5.77;;;2.13;;
52854;SDS011;38719;51.418;7.286;2023-04-03T12:48:15;8.57;;;2.40;;
52854;SDS011;38719;51.418;7.286;2023-04-03T12:50:45;5.57;;;2.33;;
52854;SDS011;38719;51.418;7.286;2023-04-03T12:53:16;3.65;;;2.20;;
52854;SDS011;38719;51.418;7.286;2023-04-03T12:55:46;5.93;;;2.13;;
52854;SDS011;38719;51.418;7.286;2023-04-03T12:58:14;4.70;;;1.92;;
52854;SDS011;38719;51.418;7.286;2023-04-03T13:00:43;9.18;;;2.03;;
52854;SDS011;38719;51.418;7.286;2023-04-03T13:03:21;4.25;;;1.92;;
52854;SDS011;38719;51.418;7.286;2023-04-03T13:05:53;4.65;;;2.03;;
52854;SDS011;38719;51.418;7.286;2023-04-03T13:08:24;2.72;;;2.10;;
52854;SDS011;38719;51.418;7.286;2023-04-03T13:10:54;8.48;;;2.42;;
52854;SDS011;38719;51.418;7.286;2023-04-03T13:13:25;2.28;;;2.05;;
52854;SDS011;38719;51.418;7.286;2023-04-03T13:15:53;3.40;;;2.00;;
52854;SDS011;38719;51.418;7.286;2023-04-03T13:18:26;3.03;;;1.83;;
52854;SDS011;38719;51.418;7.286;2023-04-03T13:20:57;5.03;;;2.33;;
52854;SDS011;38719;51.418;7.286;2023-04-03T13:23:30;3.40;;;2.13;;
52854;SDS011;38719;51.418;7.286;2023-04-03T13:25:58;4.20;;;2.40;;
52854;SDS011;38719;51.418;7.286;2023-04-03T13:28:30;2.47;;;1.80;;
52854;SDS011;38719;51.418;7.286;2023-04-03T13:31:01;5.43;;;2.00;;
52854;SDS011;38719;51.418;7.286;2023-04-03T13:33:32;3.95;;;1.92;;
52854;SDS011;38719;51.418;7.286;2023-04-03T13:36:04;4.50;;;2.10;;
52854;SDS011;38719;51.418;7.286;2023-04-03T13:38:36;3.85;;;1.92;;
52854;SDS011;38719;51.418;7.286;2023-04-03T13:41:04;4.13;;;2.28;;
52854;SDS011;38719;51.418;7.286;2023-04-03T13:43:48;6.93;;;2.00;;
52854;SDS011;38719;51.418;7.286;2023-04-03T13:46:22;5.85;;;2.50;;
52854;SDS011;38719;51.418;7.286;2023-04-03T13:48:52;4.05;;;2.10;;
52854;SDS011;38719;51.418;7.286;2023-04-03T13:51:22;2.85;;;2.10;;
52854;SDS011;38719;51.418;7.286;2023-04-03T13:53:53;3.15;;;2.15;;
52854;SDS011;38719;51.418;7.286;2023-04-03T13:56:27;5.32;;;2.28;;
52854;SDS011;38719;51.418;7.286;2023-04-03T14:01:33;4.00;;;2.00;;
52854;SDS011;38719;51.418;7.286;2023-04-03T14:04:11;4.53;;;1.85;;
52854;SDS011;38719;51.418;7.286;2023-04-03T14:06:44;3.42;;;2.13;;
52854;SDS011;38719;51.418;7.286;2023-04-03T14:09:14;6.47;;;2.50;;
52854;SDS011;38719;51.418;7.286;2023-04-03T14:11:42;4.13;;;2.33;;
52854;SDS011;38719;51.418;7.286;2023-04-03T14:14:13;3.90;;;1.95;;
52854;SDS011;38719;51.418;7.286;2023-04-03T14:16:43;2.58;;;2.00;;
52854;SDS011;38719;51.418;7.286;2023-04-03T14:19:17;2.60;;;1.80;;
52854;SDS011;38719;51.418;7.286;2023-04-03T14:21:49;2.10;;;1.90;;
52854;SDS011;38719;51.418;7.286;2023-04-03T14:24:20;4.93;;;2.00;;
52854;SDS011;38719;51.418;7.286;2023-04-03T14:26:47;3.42;;;2.00;;
52854;SDS011;38719;51.418;7.286;2023-04-03T14:29:16;2.95;;;1.85;;
52854;SDS011;38719;51.418;7.286;2023-04-03T14:31:44;3.67;;;1.95;;
52854;SDS011;38719;51.418;7.286;2023-04-03T14:34:13;4.07;;;2.10;;
52854;SDS011;38719;51.418;7.286;2023-04-03T14:36:43;2.30;;;1.95;;
52854;SDS011;38719;51.418;7.286;2023-04-03T14:39:15;2.10;;;1.90;;
52854;SDS011;38719;51.418;7.286;2023-04-03T14:41:46;4.85;;;2.13;;
52854;SDS011;38719;51.418;7.286;2023-04-03T14:44:13;4.20;;;2.25;;
52854;SDS011;38719;51.418;7.286;2023-04-03T14:46:43;5.70;;;1.73;;
52854;SDS011;38719;51.418;7.286;2023-04-03T14:49:23;5.40;;;1.98;;
52854;SDS011;38719;51.418;7.286;2023-04-03T14:51:55;5.07;;;2.08;;
52854;SDS011;38719;51.418;7.286;2023-04-03T14:54:23;4.78;;;2.20;;
52854;SDS011;38719;51.418;7.286;2023-04-03T14:56:55;7.70;;;2.00;;
52854;SDS011;38719;51.418;7.286;2023-04-03T14:59:25;2.90;;;2.00;;
52854;SDS011;38719;51.418;7.286;2023-04-03T15:01:53;5.10;;;2.17;;
52854;SDS011;38719;51.418;7.286;2023-04-03T15:04:21;2.72;;;2.17;;
52854;SDS011;38719;51.418;7.286;2023-04-03T15:06:48;4.95;;;2.35;;
52854;SDS011;38719;51.418;7.286;2023-04-03T15:09:19;3.67;;;2.13;;